sensor_id;sensor_type;location;lat;lon;timestamp;P1;durP1;ratioP1;P2;durP2;ratioP2
9657;SDS011;4867;48.112;11.622;2022-08-25T00:00:14;6.33;;;5.73;;
9657;SDS011;4867;48.112;11.622;2022-08-25T00:02:42;6.33;;;5.73;;
9657;SDS011;4867;48.112;11.622;2022-08-25T00:05:23;7.13;;;5.80;;
9657;SDS011;4867;48.112;11.622;2022-08-25T00:07:57;7.17;;;6.47;;
9657;SDS011;4867;48.112;11.622;2022-08-25T00:10:25;7.87;;;6.50;;
9657;SDS011;4867;48.112;11.622;2022-08-25T00:12:54;6.47;;;5.97;;
9657;SDS011;4867;48.112;11.622;2022-08-25T00:15:20;6.63;;;6.10;;
9657;SDS011;4867;48.112;11.622;2022-08-25T00:17:48;7.20;;;6.60;;
9657;SDS011;4867;48.112;11.622;2022-08-25T00:20:15;7.57;;;6.90;;
9657;SDS011;4867;48.112;11.622;2022-08-25T00:22:43;8.00;;;7.30;;
9657;SDS011;4867;48.112;11.622;2022-08-25T00:25:10;7.97;;;7.27;;
9657;SDS011;4867;48.112;11.622;2022-08-25T00:27:37;7.47;;;6.87;;
9657;SDS011;4867;48.112;11.622;2022-08-25T00:30:05;7.40;;;6.70;;
9657;SDS011;4867;48.112;11.622;2022-08-25T00:32:32;6.83;;;6.23;;
9657;SDS011;4867;48.112;11.622;2022-08-25T00:34:59;7.43;;;6.73;;
9657;SDS011;4867;48.112;11.622;2022-08-25T00:37:27;8.77;;;6.33;;
9657;SDS011;4867;48.112;11.622;2022-08-25T00:39:54;7.77;;;6.97;;
9657;SDS011;4867;48.112;11.622;2022-08-25T00:42:24;7.37;;;6.70;;
9657;SDS011;4867;48.112;11.622;2022-08-25T00:44:51;7.10;;;6.50;;
9657;SDS011;4867;48.112;11.622;2022-08-25T00:47:19;6.93;;;6.30;;
9657;SDS011;4867;48.112;11.622;2022-08-25T00:49:56;7.80;;;7.00;;
9657;SDS011;4867;48.112;11.622;2022-08-25T00:52:29;7.67;;;6.97;;
9657;SDS011;4867;48.112;11.622;2022-08-25T00:55:05;7.60;;;6.80;;
9657;SDS011;4867;48.112;11.622;2022-08-25T00:57:41;7.77;;;7.00;;
9657;SDS011;4867;48.112;11.622;2022-08-25T01:02:41;9.27;;;8.37;;
9657;SDS011;4867;48.112;11.622;2022-08-25T01:05:08;10.17;;;8.43;;
9657;SDS011;4867;48.112;11.622;2022-08-25T01:07:35;9.50;;;8.20;;
9657;SDS011;4867;48.112;11.622;2022-08-25T01:10:06;8.73;;;7.80;;
9657;SDS011;4867;48.112;11.622;2022-08-25T01:12:43;8.17;;;7.37;;
9657;SDS011;4867;48.112;11.622;2022-08-25T01:15:13;8.23;;;7.50;;
9657;SDS011;4867;48.112;11.622;2022-08-25T01:17:47;9.17;;;7.80;;
9657;SDS011;4867;48.112;11.622;2022-08-25T01:20:15;7.87;;;7.13;;
9657;SDS011;4867;48.112;11.622;2022-08-25T01:22:44;8.17;;;7.47;;
9657;SDS011;4867;48.112;11.622;2022-08-25T01:25:40;7.97;;;7.20;;
9657;SDS011;4867;48.112;11.622;2022-08-25T01:28:15;8.30;;;7.50;;
9657;SDS011;4867;48.112;11.622;2022-08-25T01:30:44;8.83;;;8.07;;
9657;SDS011;4867;48.112;11.622;2022-08-25T01:33:11;9.50;;;8.53;;
9657;SDS011;4867;48.112;11.622;2022-08-25T01:35:39;10.00;;;9.10;;
9657;SDS011;4867;48.112;11.622;2022-08-25T01:38:07;9.80;;;8.90;;
9657;SDS011;4867;48.112;11.622;2022-08-25T01:40:35;9.27;;;8.47;;
9657;SDS011;4867;48.112;11.622;2022-08-25T01:43:06;10.43;;;9.43;;
9657;SDS011;4867;48.112;11.622;2022-08-25T01:45:45;10.30;;;9.37;;
9657;SDS011;4867;48.112;11.622;2022-08-25T01:48:17;10.20;;;8.97;;
9657;SDS011;4867;48.112;11.622;2022-08-25T01:50:47;10.60;;;9.60;;
9657;SDS011;4867;48.112;11.622;2022-08-25T01:53:21;10.47;;;9.43;;
9657;SDS011;4867;48.112;11.622;2022-08-25T01:56:11;11.63;;;10.53;;
9657;SDS011;4867;48.112;11.622;2022-08-25T01:58:45;10.73;;;9.73;;
9657;SDS011;4867;48.112;11.622;2022-08-25T02:01:20;10.30;;;9.30;;
9657;SDS011;4867;48.112;11.622;2022-08-25T02:03:49;10.07;;;9.17;;
9657;SDS011;4867;48.112;11.622;2022-08-25T02:06:24;10.47;;;8.60;;
9657;SDS011;4867;48.112;11.622;2022-08-25T02:08:56;9.53;;;8.63;;
9657;SDS011;4867;48.112;11.622;2022-08-25T02:11:31;9.30;;;8.50;;
9657;SDS011;4867;48.112;11.622;2022-08-25T02:14:00;10.47;;;9.43;;
9657;SDS011;4867;48.112;11.622;2022-08-25T02:16:30;10.13;;;8.97;;
9657;SDS011;4867;48.112;11.622;2022-08-25T02:19:00;10.30;;;9.27;;
9657;SDS011;4867;48.112;11.622;2022-08-25T02:21:28;10.37;;;9.37;;
9657;SDS011;4867;48.112;11.622;2022-08-25T02:23:57;10.10;;;9.10;;
9657;SDS011;4867;48.112;11.622;2022-08-25T02:26:25;13.40;;;12.00;;
9657;SDS011;4867;48.112;11.622;2022-08-25T02:28:52;12.67;;;11.27;;
9657;SDS011;4867;48.112;11.622;2022-08-25T02:31:20;12.23;;;11.03;;
9657;SDS011;4867;48.112;11.622;2022-08-25T02:33:48;10.70;;;9.77;;
9657;SDS011;4867;48.112;11.622;2022-08-25T02:36:16;11.97;;;10.77;;
9657;SDS011;4867;48.112;11.622;2022-08-25T02:38:44;12.90;;;11.60;;
9657;SDS011;4867;48.112;11.622;2022-08-25T02:41:11;11.27;;;10.27;;
9657;SDS011;4867;48.112;11.622;2022-08-25T02:43:41;11.37;;;10.27;;
9657;SDS011;4867;48.112;11.622;2022-08-25T02:46:09;11.90;;;10.80;;
9657;SDS011;4867;48.112;11.622;2022-08-25T02:48:37;12.60;;;11.40;;
9657;SDS011;4867;48.112;11.622;2022-08-25T02:51:05;12.80;;;11.60;;
9657;SDS011;4867;48.112;11.622;2022-08-25T02:53:35;12.33;;;11.03;;
9657;SDS011;4867;48.112;11.622;2022-08-25T02:56:07;12.63;;;11.33;;
9657;SDS011;4867;48.112;11.622;2022-08-25T02:58:35;12.90;;;11.57;;
9657;SDS011;4867;48.112;11.622;2022-08-25T03:01:04;13.13;;;11.83;;
9657;SDS011;4867;48.112;11.622;2022-08-25T03:03:32;14.17;;;12.63;;
9657;SDS011;4867;48.112;11.622;2022-08-25T03:06:08;14.17;;;12.67;;
9657;SDS011;4867;48.112;11.622;2022-08-25T03:08:35;14.47;;;11.40;;
9657;SDS011;4867;48.112;11.622;2022-08-25T03:11:03;14.20;;;12.70;;
9657;SDS011;4867;48.112;11.622;2022-08-25T03:13:31;12.50;;;11.30;;
9657;SDS011;4867;48.112;11.622;2022-08-25T03:15:59;11.77;;;10.60;;
9657;SDS011;4867;48.112;11.622;2022-08-25T03:18:28;14.27;;;12.77;;
9657;SDS011;4867;48.112;11.622;2022-08-25T03:20:56;14.17;;;12.53;;
9657;SDS011;4867;48.112;11.622;2022-08-25T03:23:25;13.47;;;12.13;;
9657;SDS011;4867;48.112;11.622;2022-08-25T03:25:53;16.47;;;12.10;;
9657;SDS011;4867;48.112;11.622;2022-08-25T03:28:39;14.23;;;12.83;;
9657;SDS011;4867;48.112;11.622;2022-08-25T03:31:11;13.33;;;11.93;;
9657;SDS011;4867;48.112;11.622;2022-08-25T03:33:38;13.37;;;11.97;;
9657;SDS011;4867;48.112;11.622;2022-08-25T03:36:06;13.57;;;12.20;;
9657;SDS011;4867;48.112;11.622;2022-08-25T03:38:34;13.80;;;12.20;;
9657;SDS011;4867;48.112;11.622;2022-08-25T03:41:37;12.63;;;11.30;;
9657;SDS011;4867;48.112;11.622;2022-08-25T03:44:01;13.23;;;11.20;;
9657;SDS011;4867;48.112;11.622;2022-08-25T03:46:33;13.17;;;11.77;;
9657;SDS011;4867;48.112;11.622;2022-08-25T03:49:05;12.80;;;11.43;;
9657;SDS011;4867;48.112;11.622;2022-08-25T03:51:38;13.33;;;12.13;;
9657;SDS011;4867;48.112;11.622;2022-08-25T03:54:07;11.33;;;10.23;;
9657;SDS011;4867;48.112;11.622;2022-08-25T03:56:36;10.83;;;9.73;;
9657;SDS011;4867;48.112;11.622;2022-08-25T03:59:03;11.97;;;10.77;;
9657;SDS011;4867;48.112;11.622;2022-08-25T04:01:31;15.23;;;13.37;;
9657;SDS011;4867;48.112;11.622;2022-08-25T04:03:58;14.47;;;13.07;;
9657;SDS011;4867;48.112;11.622;2022-08-25T04:06:26;15.33;;;12.87;;
9657;SDS011;4867;48.112;11.622;2022-08-25T04:08:54;12.80;;;11.60;;
9657;SDS011;4867;48.112;11.622;2022-08-25T04:11:25;12.83;;;11.63;;
9657;SDS011;4867;48.112;11.622;2022-08-25T04:13:56;12.27;;;10.70;;
9657;SDS011;4867;48.112;11.622;2022-08-25T04:16:25;13.47;;;11.83;;
9657;SDS011;4867;48.112;11.622;2022-08-25T04:18:57;17.10;;;13.50;;
9657;SDS011;4867;48.112;11.622;2022-08-25T04:21:25;15.27;;;13.67;;
9657;SDS011;4867;48.112;11.622;2022-08-25T04:23:53;16.40;;;14.80;;
9657;SDS011;4867;48.112;11.622;2022-08-25T04:26:29;14.93;;;13.43;;
9657;SDS011;4867;48.112;11.622;2022-08-25T04:28:59;14.67;;;13.00;;
9657;SDS011;4867;48.112;11.622;2022-08-25T04:31:29;14.40;;;12.90;;
9657;SDS011;4867;48.112;11.622;2022-08-25T04:33:57;16.50;;;14.90;;
9657;SDS011;4867;48.112;11.622;2022-08-25T04:36:26;15.03;;;13.53;;
9657;SDS011;4867;48.112;11.622;2022-08-25T04:38:54;14.43;;;12.90;;
9657;SDS011;4867;48.112;11.622;2022-08-25T04:41:22;13.97;;;12.57;;
9657;SDS011;4867;48.112;11.622;2022-08-25T04:43:49;15.67;;;12.20;;
9657;SDS011;4867;48.112;11.622;2022-08-25T04:46:19;13.23;;;11.93;;
9657;SDS011;4867;48.112;11.622;2022-08-25T04:48:51;12.97;;;11.33;;
9657;SDS011;4867;48.112;11.622;2022-08-25T04:51:20;12.10;;;11.00;;
9657;SDS011;4867;48.112;11.622;2022-08-25T04:53:50;12.87;;;10.57;;
9657;SDS011;4867;48.112;11.622;2022-08-25T04:56:18;14.13;;;12.73;;
9657;SDS011;4867;48.112;11.622;2022-08-25T04:58:47;12.37;;;11.17;;
9657;SDS011;4867;48.112;11.622;2022-08-25T05:01:15;10.90;;;9.90;;
9657;SDS011;4867;48.112;11.622;2022-08-25T05:03:50;11.23;;;10.13;;
9657;SDS011;4867;48.112;11.622;2022-08-25T05:06:19;10.77;;;9.50;;
9657;SDS011;4867;48.112;11.622;2022-08-25T05:08:47;12.83;;;10.70;;
9657;SDS011;4867;48.112;11.622;2022-08-25T05:11:15;10.57;;;9.50;;
9657;SDS011;4867;48.112;11.622;2022-08-25T05:13:44;9.57;;;8.60;;
9657;SDS011;4867;48.112;11.622;2022-08-25T05:16:18;10.93;;;9.77;;
9657;SDS011;4867;48.112;11.622;2022-08-25T05:18:48;8.83;;;7.93;;
9657;SDS011;4867;48.112;11.622;2022-08-25T05:21:18;10.00;;;8.70;;
9657;SDS011;4867;48.112;11.622;2022-08-25T05:23:47;9.47;;;8.57;;
9657;SDS011;4867;48.112;11.622;2022-08-25T05:26:17;10.10;;;9.10;;
9657;SDS011;4867;48.112;11.622;2022-08-25T05:28:52;10.33;;;9.23;;
9657;SDS011;4867;48.112;11.622;2022-08-25T05:31:21;13.20;;;10.30;;
9657;SDS011;4867;48.112;11.622;2022-08-25T05:33:50;11.50;;;10.20;;
9657;SDS011;4867;48.112;11.622;2022-08-25T05:36:18;10.70;;;9.57;;
9657;SDS011;4867;48.112;11.622;2022-08-25T05:38:47;11.70;;;9.80;;
9657;SDS011;4867;48.112;11.622;2022-08-25T05:41:16;10.83;;;9.83;;
9657;SDS011;4867;48.112;11.622;2022-08-25T05:43:48;10.83;;;9.83;;
9657;SDS011;4867;48.112;11.622;2022-08-25T05:46:17;14.53;;;10.63;;
9657;SDS011;4867;48.112;11.622;2022-08-25T05:48:48;12.30;;;10.87;;
9657;SDS011;4867;48.112;11.622;2022-08-25T05:51:16;12.27;;;10.20;;
9657;SDS011;4867;48.112;11.622;2022-08-25T05:53:47;12.13;;;10.77;;
9657;SDS011;4867;48.112;11.622;2022-08-25T05:56:15;10.73;;;9.73;;
9657;SDS011;4867;48.112;11.622;2022-08-25T05:58:43;12.70;;;11.20;;
9657;SDS011;4867;48.112;11.622;2022-08-25T06:01:17;12.73;;;11.23;;
9657;SDS011;4867;48.112;11.622;2022-08-25T06:04:04;12.50;;;11.23;;
9657;SDS011;4867;48.112;11.622;2022-08-25T06:06:31;13.03;;;11.73;;
9657;SDS011;4867;48.112;11.622;2022-08-25T06:09:00;13.23;;;11.87;;
9657;SDS011;4867;48.112;11.622;2022-08-25T06:11:30;13.50;;;12.10;;
9657;SDS011;4867;48.112;11.622;2022-08-25T06:13:56;15.00;;;11.90;;
9657;SDS011;4867;48.112;11.622;2022-08-25T06:16:23;14.87;;;13.20;;
9657;SDS011;4867;48.112;11.622;2022-08-25T06:18:51;14.20;;;12.73;;
9657;SDS011;4867;48.112;11.622;2022-08-25T06:21:22;14.83;;;13.23;;
9657;SDS011;4867;48.112;11.622;2022-08-25T06:23:51;15.50;;;13.90;;
9657;SDS011;4867;48.112;11.622;2022-08-25T06:26:18;15.13;;;13.73;;
9657;SDS011;4867;48.112;11.622;2022-08-25T06:28:47;14.23;;;12.80;;
9657;SDS011;4867;48.112;11.622;2022-08-25T06:31:16;14.93;;;13.40;;
9657;SDS011;4867;48.112;11.622;2022-08-25T06:33:45;13.77;;;12.47;;
9657;SDS011;4867;48.112;11.622;2022-08-25T06:36:13;13.00;;;11.80;;
9657;SDS011;4867;48.112;11.622;2022-08-25T06:38:40;14.30;;;12.90;;
9657;SDS011;4867;48.112;11.622;2022-08-25T06:41:07;13.73;;;12.17;;
9657;SDS011;4867;48.112;11.622;2022-08-25T06:43:36;12.87;;;11.67;;
9657;SDS011;4867;48.112;11.622;2022-08-25T06:46:09;13.77;;;12.10;;
9657;SDS011;4867;48.112;11.622;2022-08-25T06:48:38;12.63;;;11.43;;
9657;SDS011;4867;48.112;11.622;2022-08-25T06:51:11;13.40;;;12.10;;
9657;SDS011;4867;48.112;11.622;2022-08-25T06:53:41;12.33;;;11.07;;
9657;SDS011;4867;48.112;11.622;2022-08-25T06:56:10;12.90;;;11.60;;
9657;SDS011;4867;48.112;11.622;2022-08-25T06:58:38;12.03;;;10.87;;
9657;SDS011;4867;48.112;11.622;2022-08-25T07:01:07;11.93;;;10.73;;
9657;SDS011;4867;48.112;11.622;2022-08-25T07:03:57;11.33;;;10.30;;
9657;SDS011;4867;48.112;11.622;2022-08-25T07:06:27;11.93;;;10.83;;
9657;SDS011;4867;48.112;11.622;2022-08-25T07:08:58;11.33;;;10.23;;
9657;SDS011;4867;48.112;11.622;2022-08-25T07:11:26;10.50;;;9.60;;
9657;SDS011;4867;48.112;11.622;2022-08-25T07:13:54;10.50;;;9.50;;
9657;SDS011;4867;48.112;11.622;2022-08-25T07:16:22;11.17;;;9.00;;
9657;SDS011;4867;48.112;11.622;2022-08-25T07:18:55;8.97;;;8.20;;
9657;SDS011;4867;48.112;11.622;2022-08-25T07:21:25;9.50;;;8.60;;
9657;SDS011;4867;48.112;11.622;2022-08-25T07:23:58;9.17;;;8.37;;
9657;SDS011;4867;48.112;11.622;2022-08-25T07:26:28;9.20;;;8.30;;
9657;SDS011;4867;48.112;11.622;2022-08-25T07:29:05;11.90;;;9.37;;
9657;SDS011;4867;48.112;11.622;2022-08-25T07:31:40;10.00;;;9.00;;
9657;SDS011;4867;48.112;11.622;2022-08-25T07:34:08;10.70;;;9.60;;
9657;SDS011;4867;48.112;11.622;2022-08-25T07:36:54;10.20;;;9.13;;
9657;SDS011;4867;48.112;11.622;2022-08-25T07:39:23;9.97;;;8.90;;
9657;SDS011;4867;48.112;11.622;2022-08-25T07:41:51;10.27;;;9.37;;
9657;SDS011;4867;48.112;11.622;2022-08-25T07:44:19;10.13;;;8.60;;
9657;SDS011;4867;48.112;11.622;2022-08-25T07:46:48;11.07;;;10.07;;
9657;SDS011;4867;48.112;11.622;2022-08-25T07:49:19;10.53;;;9.53;;
9657;SDS011;4867;48.112;11.622;2022-08-25T07:51:49;10.40;;;9.20;;
9657;SDS011;4867;48.112;11.622;2022-08-25T07:54:31;10.87;;;9.80;;
9657;SDS011;4867;48.112;11.622;2022-08-25T07:57:04;10.93;;;9.60;;
9657;SDS011;4867;48.112;11.622;2022-08-25T07:59:33;10.60;;;9.60;;
9657;SDS011;4867;48.112;11.622;2022-08-25T08:02:09;10.23;;;9.33;;
9657;SDS011;4867;48.112;11.622;2022-08-25T08:04:45;12.63;;;9.83;;
9657;SDS011;4867;48.112;11.622;2022-08-25T08:07:17;12.27;;;10.20;;
9657;SDS011;4867;48.112;11.622;2022-08-25T08:09:46;11.40;;;10.20;;
9657;SDS011;4867;48.112;11.622;2022-08-25T08:12:21;12.03;;;10.73;;
9657;SDS011;4867;48.112;11.622;2022-08-25T08:14:49;10.50;;;9.40;;
9657;SDS011;4867;48.112;11.622;2022-08-25T08:17:18;11.93;;;9.97;;
9657;SDS011;4867;48.112;11.622;2022-08-25T08:19:46;10.13;;;9.27;;
9657;SDS011;4867;48.112;11.622;2022-08-25T08:22:13;9.33;;;8.40;;
9657;SDS011;4867;48.112;11.622;2022-08-25T08:24:41;9.03;;;8.13;;
9657;SDS011;4867;48.112;11.622;2022-08-25T08:27:22;9.77;;;8.20;;
9657;SDS011;4867;48.112;11.622;2022-08-25T08:29:49;8.77;;;7.97;;
9657;SDS011;4867;48.112;11.622;2022-08-25T08:32:16;9.17;;;8.30;;
9657;SDS011;4867;48.112;11.622;2022-08-25T08:34:44;8.87;;;7.67;;
9657;SDS011;4867;48.112;11.622;2022-08-25T08:37:16;8.00;;;7.30;;
9657;SDS011;4867;48.112;11.622;2022-08-25T08:39:48;9.13;;;8.27;;
9657;SDS011;4867;48.112;11.622;2022-08-25T08:54:12;7.83;;;7.20;;
9657;SDS011;4867;48.112;11.622;2022-08-25T08:56:46;8.27;;;7.47;;
9657;SDS011;4867;48.112;11.622;2022-08-25T08:59:16;6.80;;;6.20;;
9657;SDS011;4867;48.112;11.622;2022-08-25T09:01:48;7.57;;;6.77;;
9657;SDS011;4867;48.112;11.622;2022-08-25T09:04:26;7.40;;;6.67;;
9657;SDS011;4867;48.112;11.622;2022-08-25T09:06:59;8.53;;;7.17;;
9657;SDS011;4867;48.112;11.622;2022-08-25T09:09:32;7.13;;;6.47;;
9657;SDS011;4867;48.112;11.622;2022-08-25T09:28:48;6.53;;;6.03;;
9657;SDS011;4867;48.112;11.622;2022-08-25T09:31:21;5.97;;;5.43;;
9657;SDS011;4867;48.112;11.622;2022-08-25T09:33:55;6.20;;;5.60;;
9657;SDS011;4867;48.112;11.622;2022-08-25T09:36:23;6.33;;;5.73;;
9657;SDS011;4867;48.112;11.622;2022-08-25T09:38:50;6.83;;;6.17;;
9657;SDS011;4867;48.112;11.622;2022-08-25T09:41:33;8.10;;;6.47;;
9657;SDS011;4867;48.112;11.622;2022-08-25T09:44:21;7.72;;;6.90;;
9657;SDS011;4867;48.112;11.622;2022-08-25T09:49:34;7.22;;;6.63;;
9657;SDS011;4867;48.112;11.622;2022-08-25T09:54:44;8.02;;;6.05;;
9657;SDS011;4867;48.112;11.622;2022-08-25T09:57:56;6.88;;;5.93;;
9657;SDS011;4867;48.112;11.622;2022-08-25T10:05:34;6.47;;;5.80;;
9657;SDS011;4867;48.112;11.622;2022-08-25T10:09:10;8.75;;;5.88;;
9657;SDS011;4867;48.112;11.622;2022-08-25T10:11:12;8.82;;;6.30;;
9657;SDS011;4867;48.112;11.622;2022-08-25T10:19:54;7.07;;;6.55;;
9657;SDS011;4867;48.112;11.622;2022-08-25T10:22:39;6.65;;;6.05;;
9657;SDS011;4867;48.112;11.622;2022-08-25T10:25:08;7.22;;;6.50;;
9657;SDS011;4867;48.112;11.622;2022-08-25T10:27:42;6.35;;;5.85;;
9657;SDS011;4867;48.112;11.622;2022-08-25T10:30:27;6.35;;;5.53;;
9657;SDS011;4867;48.112;11.622;2022-08-25T10:33:03;6.78;;;5.35;;
9657;SDS011;4867;48.112;11.622;2022-08-25T10:47:30;7.10;;;6.47;;
9657;SDS011;4867;48.112;11.622;2022-08-25T10:50:26;6.72;;;6.00;;
9657;SDS011;4867;48.112;11.622;2022-08-25T10:53:01;6.00;;;5.40;;
9657;SDS011;4867;48.112;11.622;2022-08-25T10:55:39;5.50;;;4.97;;
9657;SDS011;4867;48.112;11.622;2022-08-25T11:06:13;7.10;;;6.00;;
9657;SDS011;4867;48.112;11.622;2022-08-25T11:08:56;7.55;;;6.00;;
9657;SDS011;4867;48.112;11.622;2022-08-25T11:11:31;9.30;;;6.00;;
9657;SDS011;4867;48.112;11.622;2022-08-25T11:14:39;10.65;;;6.80;;
9657;SDS011;4867;48.112;11.622;2022-08-25T11:17:18;7.63;;;6.88;;
9657;SDS011;4867;48.112;11.622;2022-08-25T11:20:03;8.55;;;6.38;;
9657;SDS011;4867;48.112;11.622;2022-08-25T11:25:51;10.75;;;6.97;;
9657;SDS011;4867;48.112;11.622;2022-08-25T11:31:08;8.32;;;6.95;;
9657;SDS011;4867;48.112;11.622;2022-08-25T11:33:36;7.53;;;6.88;;
9657;SDS011;4867;48.112;11.622;2022-08-25T11:36:50;7.57;;;6.75;;
9657;SDS011;4867;48.112;11.622;2022-08-25T11:39:04;8.77;;;6.53;;
9657;SDS011;4867;48.112;11.622;2022-08-25T11:41:54;9.63;;;6.85;;
9657;SDS011;4867;48.112;11.622;2022-08-25T11:50:08;9.95;;;6.82;;
9657;SDS011;4867;48.112;11.622;2022-08-25T11:53:30;7.82;;;7.13;;
9657;SDS011;4867;48.112;11.622;2022-08-25T11:56:04;8.05;;;6.95;;
9657;SDS011;4867;48.112;11.622;2022-08-25T11:58:39;7.63;;;6.88;;
9657;SDS011;4867;48.112;11.622;2022-08-25T12:01:10;8.50;;;7.15;;
9657;SDS011;4867;48.112;11.622;2022-08-25T12:04:10;8.88;;;7.00;;
9657;SDS011;4867;48.112;11.622;2022-08-25T12:09:33;8.40;;;6.97;;
9657;SDS011;4867;48.112;11.622;2022-08-25T12:12:31;10.82;;;6.65;;
9657;SDS011;4867;48.112;11.622;2022-08-25T12:15:53;7.55;;;6.85;;
9657;SDS011;4867;48.112;11.622;2022-08-25T12:34:23;12.40;;;7.20;;
9657;SDS011;4867;48.112;11.622;2022-08-25T12:37:18;11.85;;;6.70;;
9657;SDS011;4867;48.112;11.622;2022-08-25T12:45:08;9.60;;;7.60;;
9657;SDS011;4867;48.112;11.622;2022-08-25T12:47:51;20.77;;;8.05;;
9657;SDS011;4867;48.112;11.622;2022-08-25T12:51:02;10.95;;;8.30;;
9657;SDS011;4867;48.112;11.622;2022-08-25T12:56:02;12.98;;;8.25;;
9657;SDS011;4867;48.112;11.622;2022-08-25T13:07:08;10.45;;;8.35;;
9657;SDS011;4867;48.112;11.622;2022-08-25T13:12:45;10.98;;;8.18;;
9657;SDS011;4867;48.112;11.622;2022-08-25T13:15:14;11.35;;;8.60;;
9657;SDS011;4867;48.112;11.622;2022-08-25T13:17:50;12.10;;;8.93;;
9657;SDS011;4867;48.112;11.622;2022-08-25T13:20:29;14.88;;;8.93;;
9657;SDS011;4867;48.112;11.622;2022-08-25T13:22:56;15.85;;;8.68;;
9657;SDS011;4867;48.112;11.622;2022-08-25T13:25:26;11.68;;;7.88;;
9657;SDS011;4867;48.112;11.622;2022-08-25T13:27:59;11.73;;;8.05;;
9657;SDS011;4867;48.112;11.622;2022-08-25T13:30:35;11.52;;;7.43;;
9657;SDS011;4867;48.112;11.622;2022-08-25T13:33:18;11.52;;;7.85;;
9657;SDS011;4867;48.112;11.622;2022-08-25T13:35:48;10.00;;;8.43;;
9657;SDS011;4867;48.112;11.622;2022-08-25T13:38:44;12.02;;;8.85;;
9657;SDS011;4867;48.112;11.622;2022-08-25T13:41:21;14.82;;;9.35;;
9657;SDS011;4867;48.112;11.622;2022-08-25T13:43:55;13.35;;;9.00;;
9657;SDS011;4867;48.112;11.622;2022-08-25T13:46:26;15.90;;;9.10;;
9657;SDS011;4867;48.112;11.622;2022-08-25T13:49:01;17.52;;;9.32;;
9657;SDS011;4867;48.112;11.622;2022-08-25T13:51:31;24.23;;;8.93;;
9657;SDS011;4867;48.112;11.622;2022-08-25T13:53:59;12.43;;;8.98;;
9657;SDS011;4867;48.112;11.622;2022-08-25T13:59:34;11.88;;;9.15;;
9657;SDS011;4867;48.112;11.622;2022-08-25T14:02:06;13.05;;;9.25;;
9657;SDS011;4867;48.112;11.622;2022-08-25T14:04:46;11.13;;;8.82;;
9657;SDS011;4867;48.112;11.622;2022-08-25T14:17:27;14.38;;;8.95;;
9657;SDS011;4867;48.112;11.622;2022-08-25T14:20:05;15.38;;;8.88;;
9657;SDS011;4867;48.112;11.622;2022-08-25T14:22:42;10.23;;;8.50;;
9657;SDS011;4867;48.112;11.622;2022-08-25T14:25:09;10.75;;;8.35;;
9657;SDS011;4867;48.112;11.622;2022-08-25T14:27:40;29.80;;;9.32;;
9657;SDS011;4867;48.112;11.622;2022-08-25T14:30:28;12.32;;;7.80;;
9657;SDS011;4867;48.112;11.622;2022-08-25T14:32:58;18.63;;;9.27;;
9657;SDS011;4867;48.112;11.622;2022-08-25T14:35:27;16.48;;;9.55;;
9657;SDS011;4867;48.112;11.622;2022-08-25T14:37:56;14.55;;;9.43;;
9657;SDS011;4867;48.112;11.622;2022-08-25T14:40:23;57.50;;;12.55;;
9657;SDS011;4867;48.112;11.622;2022-08-25T14:42:50;10.40;;;8.32;;
9657;SDS011;4867;48.112;11.622;2022-08-25T14:45:17;15.90;;;9.60;;
9657;SDS011;4867;48.112;11.622;2022-08-25T14:47:44;24.00;;;10.57;;
9657;SDS011;4867;48.112;11.622;2022-08-25T14:50:15;25.83;;;9.73;;
9657;SDS011;4867;48.112;11.622;2022-08-25T14:52:46;14.95;;;9.45;;
9657;SDS011;4867;48.112;11.622;2022-08-25T14:55:17;29.55;;;11.35;;
9657;SDS011;4867;48.112;11.622;2022-08-25T14:57:57;17.27;;;9.48;;
9657;SDS011;4867;48.112;11.622;2022-08-25T15:00:24;13.80;;;9.70;;
9657;SDS011;4867;48.112;11.622;2022-08-25T15:02:51;16.25;;;9.38;;
9657;SDS011;4867;48.112;11.622;2022-08-25T15:05:22;43.75;;;11.63;;
9657;SDS011;4867;48.112;11.622;2022-08-25T15:07:53;28.50;;;9.82;;
9657;SDS011;4867;48.112;11.622;2022-08-25T15:10:40;38.25;;;11.68;;
9657;SDS011;4867;48.112;11.622;2022-08-25T15:13:08;33.35;;;10.75;;
9657;SDS011;4867;48.112;11.622;2022-08-25T15:15:36;46.10;;;12.45;;
9657;SDS011;4867;48.112;11.622;2022-08-25T15:18:18;22.33;;;10.52;;
9657;SDS011;4867;48.112;11.622;2022-08-25T15:20:46;22.75;;;10.65;;
9657;SDS011;4867;48.112;11.622;2022-08-25T15:23:16;19.40;;;11.15;;
9657;SDS011;4867;48.112;11.622;2022-08-25T15:25:44;17.17;;;9.85;;
9657;SDS011;4867;48.112;11.622;2022-08-25T15:28:12;50.22;;;12.75;;
9657;SDS011;4867;48.112;11.622;2022-08-25T15:30:42;119.85;;;20.02;;
9657;SDS011;4867;48.112;11.622;2022-08-25T15:33:11;28.48;;;11.05;;
9657;SDS011;4867;48.112;11.622;2022-08-25T15:35:39;18.92;;;10.27;;
9657;SDS011;4867;48.112;11.622;2022-08-25T15:38:06;31.30;;;11.75;;
9657;SDS011;4867;48.112;11.622;2022-08-25T15:40:34;21.23;;;10.65;;
9657;SDS011;4867;48.112;11.622;2022-08-25T15:43:03;17.13;;;10.10;;
9657;SDS011;4867;48.112;11.622;2022-08-25T15:45:32;20.05;;;9.98;;
9657;SDS011;4867;48.112;11.622;2022-08-25T15:48:00;16.23;;;10.30;;
9657;SDS011;4867;48.112;11.622;2022-08-25T15:50:28;20.25;;;10.30;;
9657;SDS011;4867;48.112;11.622;2022-08-25T15:52:55;21.27;;;10.07;;
9657;SDS011;4867;48.112;11.622;2022-08-25T15:55:23;31.50;;;10.82;;
9657;SDS011;4867;48.112;11.622;2022-08-25T15:57:50;50.33;;;12.02;;
9657;SDS011;4867;48.112;11.622;2022-08-25T16:00:17;39.03;;;12.55;;
9657;SDS011;4867;48.112;11.622;2022-08-25T16:02:46;24.88;;;11.10;;
9657;SDS011;4867;48.112;11.622;2022-08-25T16:05:13;25.60;;;10.70;;
9657;SDS011;4867;48.112;11.622;2022-08-25T16:07:42;73.32;;;13.48;;
9657;SDS011;4867;48.112;11.622;2022-08-25T16:10:11;21.67;;;11.07;;
9657;SDS011;4867;48.112;11.622;2022-08-25T16:12:38;24.35;;;11.52;;
9657;SDS011;4867;48.112;11.622;2022-08-25T16:15:08;21.75;;;10.88;;
9657;SDS011;4867;48.112;11.622;2022-08-25T16:17:37;19.70;;;10.15;;
9657;SDS011;4867;48.112;11.622;2022-08-25T16:20:08;27.45;;;16.27;;
9657;SDS011;4867;48.112;11.622;2022-08-25T16:22:39;22.02;;;10.23;;
9657;SDS011;4867;48.112;11.622;2022-08-25T16:25:07;18.85;;;9.88;;
9657;SDS011;4867;48.112;11.622;2022-08-25T16:27:35;23.55;;;10.07;;
9657;SDS011;4867;48.112;11.622;2022-08-25T16:30:04;17.85;;;10.23;;
9657;SDS011;4867;48.112;11.622;2022-08-25T16:32:33;31.35;;;11.20;;
9657;SDS011;4867;48.112;11.622;2022-08-25T16:35:01;23.10;;;10.00;;
9657;SDS011;4867;48.112;11.622;2022-08-25T16:37:28;19.23;;;10.30;;
9657;SDS011;4867;48.112;11.622;2022-08-25T16:39:55;23.85;;;11.00;;
9657;SDS011;4867;48.112;11.622;2022-08-25T16:42:22;26.80;;;11.70;;
9657;SDS011;4867;48.112;11.622;2022-08-25T16:44:51;16.25;;;10.18;;
9657;SDS011;4867;48.112;11.622;2022-08-25T16:47:19;23.40;;;11.80;;
9657;SDS011;4867;48.112;11.622;2022-08-25T16:49:52;21.73;;;10.68;;
9657;SDS011;4867;48.112;11.622;2022-08-25T16:52:19;26.13;;;10.05;;
9657;SDS011;4867;48.112;11.622;2022-08-25T16:55:09;22.77;;;10.13;;
9657;SDS011;4867;48.112;11.622;2022-08-25T16:57:40;15.52;;;9.77;;
9657;SDS011;4867;48.112;11.622;2022-08-25T17:00:10;18.98;;;9.85;;
9657;SDS011;4867;48.112;11.622;2022-08-25T17:02:39;18.67;;;9.98;;
9657;SDS011;4867;48.112;11.622;2022-08-25T17:05:07;16.17;;;9.90;;
9657;SDS011;4867;48.112;11.622;2022-08-25T17:07:36;21.45;;;9.50;;
9657;SDS011;4867;48.112;11.622;2022-08-25T17:10:04;26.38;;;12.00;;
9657;SDS011;4867;48.112;11.622;2022-08-25T17:12:37;16.52;;;9.60;;
9657;SDS011;4867;48.112;11.622;2022-08-25T17:15:05;23.60;;;11.73;;
9657;SDS011;4867;48.112;11.622;2022-08-25T17:17:32;23.17;;;9.68;;
9657;SDS011;4867;48.112;11.622;2022-08-25T17:20:02;24.98;;;12.32;;
9657;SDS011;4867;48.112;11.622;2022-08-25T17:22:30;18.75;;;10.70;;
9657;SDS011;4867;48.112;11.622;2022-08-25T17:24:56;19.30;;;9.90;;